Time;durP1;ratioP1;P1;durP2;ratioP2;P2;SDS_P1;SDS_P2;PMS_P1;PMS_P2;Temp;Humidity;BMP_temperature;BMP_pressure;BME280_temperature;BME280_humidity;BME280_pressure;Samples;Min_cycle;Max_cycle;Signal;HPM_P1;HPM_P2
2022/01/02 00:00:14;;;;;;;45.80;28.10;;;;;;;;;;5053767;28;20025;-68
2022/01/02 00:02:41;;;;;;;39.22;24.95;;;;;;;;;;5054797;28;20057;-66
2022/01/02 00:05:15;;;;;;;39.15;24.50;;;358.40;2329.60;;;;;;5054678;28;20021;-69
2022/01/02 00:08:06;;;;;;;39.65;24.27;;;358.40;2329.60;;;;;;5054787;28;20028;-62
2022/01/02 00:10:43;;;;;;;42.03;26.35;;;358.50;2329.60;;;;;;5054517;28;20024;-63
2022/01/02 00:13:14;;;;;;;43.35;26.13;;;358.60;2329.60;;;;;;5054678;28;20049;-62
2022/01/02 00:15:40;;;;;;;36.50;23.58;;;358.60;2329.60;;;;;;5054388;28;20073;-62
2022/01/02 00:18:10;;;;;;;35.13;23.13;;;358.60;2329.60;;;;;;5054596;28;20471;-68
2022/01/02 00:20:45;;;;;;;40.40;26.05;;;358.60;2329.60;;;;;;5054829;28;20467;-63
2022/01/02 00:23:18;;;;;;;42.92;26.17;;;358.60;2329.60;;;;;;5054406;28;20032;-63
2022/01/02 00:25:44;;;;;;;36.92;23.30;;;;;;;;;;5054382;28;20044;-65
2022/01/02 00:28:15;;;;;;;37.53;21.77;;;358.40;2329.60;;;;;;5054443;28;20049;-69
2022/01/02 00:30:44;;;;;;;34.78;22.75;;;333.70;2329.60;;;;;;5054300;28;20215;-62
2022/01/02 00:33:11;;;;;;;42.83;24.45;;;333.70;2329.60;;;;;;5054365;28;20398;-65
2022/01/02 00:35:38;;;;;;;47.33;27.30;;;;;;;;;;5054208;28;20037;-63
2022/01/02 00:38:15;;;;;;;36.40;23.60;;;333.50;2329.60;;;;;;5047410;28;20376;-69
2022/01/02 00:40:42;;;;;;;47.97;27.20;;;;;;;;;;5045529;28;20029;-66
2022/01/02 00:43:13;;;;;;;48.50;27.15;;;;;;;;;;5042255;28;20025;-68
2022/01/02 00:45:44;;;;;;;49.10;30.08;;;;;;;;;;5051047;28;20483;-69
2022/01/02 00:48:15;;;;;;;48.20;30.00;;;;;;;;;;5053340;28;20017;-72
2022/01/02 00:50:49;;;;;;;50.03;30.42;;;;;;;;;;5053363;28;20032;-62
2022/01/02 00:53:17;;;;;;;50.08;30.33;;;;;;;;;;5052625;28;20024;-65
2022/01/02 00:55:43;;;;;;;53.65;31.15;;;;;;;;;;5053146;28;20029;-63
2022/01/02 00:58:13;;;;;;;58.08;34.33;;;;;;;;;;5040207;28;20025;-69
2022/01/02 01:00:45;;;;;;;54.08;32.75;;;;;;;;;;5040175;28;20046;-61
2022/01/02 01:03:13;;;;;;;50.80;30.05;;;;;;;;;;5033808;28;20503;-60
2022/01/02 01:05:39;;;;;;;61.03;34.00;;;;;;;;;;5043221;28;20052;-61
2022/01/02 01:08:07;;;;;;;60.72;36.58;;;;;;;;;;5053403;28;20032;-60
2022/01/02 01:10:35;;;;;;;62.10;37.85;;;;;;;;;;5053459;28;20025;-60
2022/01/02 01:13:03;;;;;;;56.92;34.67;;;;;;;;;;5053817;28;20594;-61
2022/01/02 01:15:30;;;;;;;61.35;35.53;;;;;;;;;;5053543;28;20110;-61
2022/01/02 01:17:58;;;;;;;51.60;32.92;;;;;;;;;;5053472;28;20018;-61
2022/01/02 01:20:25;;;;;;;51.65;30.92;;;;;;;;;;5053411;28;20029;-59
2022/01/02 01:22:51;;;;;;;48.95;30.40;;;;;;;;;;5053340;28;20032;-61
2022/01/02 01:25:20;;;;;;;50.22;31.17;;;;;;;;;;5053517;28;20087;-61
2022/01/02 01:27:46;;;;;;;49.80;28.50;;;;;;;;;;5042478;28;20079;-63
2022/01/02 01:30:13;;;;;;;55.72;31.27;;;;;;;;;;5032522;28;20511;-61
2022/01/02 01:32:39;;;;;;;55.90;29.65;;;;;;;;;;5032986;28;20080;-62
2022/01/02 01:35:06;;;;;;;51.78;29.33;;;;;;;;;;5033240;28;20040;-59
2022/01/02 01:37:32;;;;;;;60.78;34.03;;;;;;;;;;5033048;28;20545;-60
2022/01/02 01:39:58;;;;;;;44.70;26.90;;;;;;;;;;5039973;28;20139;-59
2022/01/02 01:42:45;;;;;;;34.13;21.80;;;;;;;;;;5052051;28;20032;-63
2022/01/02 01:47:55;;;;;;;35.50;21.67;;;332.80;2329.60;;;;;;5052920;28;20387;-61
2022/01/02 01:50:26;;;;;;;36.92;22.75;;;332.90;2329.60;;;;;;5053072;28;20040;-60
2022/01/02 01:52:52;;;;;;;39.25;23.27;;;332.90;2329.60;;;;;;5052953;28;20017;-61
2022/01/02 01:55:18;;;;;;;37.45;23.25;;;332.90;2329.60;;;;;;5052924;28;20044;-61
2022/01/02 01:57:44;;;;;;;39.25;23.52;;;332.90;2329.60;;;;;;5052759;28;20024;-61
2022/01/02 02:00:14;;;;;;;42.47;24.42;;;332.90;2329.60;;;;;;5052677;28;20032;-60
2022/01/02 02:02:42;;;;;;;55.28;30.70;;;332.90;2329.60;;;;;;5052342;28;20029;-61
2022/01/02 02:05:08;;;;;;;67.57;35.67;;;332.90;2329.60;;;;;;5051820;28;20057;-61
2022/01/02 02:07:40;;;;;;;66.30;34.88;;;332.90;2329.60;;;;;;5052728;28;20045;-60
2022/01/02 02:12:39;;;;;;;46.65;31.63;;;;;;;;;;5052553;28;20071;-61
2022/01/02 02:15:05;;;;;;;42.25;28.90;;;;;;;;;;5051195;28;20103;-68
2022/01/02 02:17:32;;;;;;;39.33;27.30;;;;;;;;;;5052292;28;20029;-63
2022/01/02 02:19:59;;;;;;;47.50;30.52;;;;;;;;;;5052851;28;20417;-61
2022/01/02 02:22:26;;;;;;;55.92;38.90;;;;;;;;;;5052614;28;20071;-61
2022/01/02 02:24:52;;;;;;;62.85;44.45;;;;;;;;;;5052518;28;20021;-61
2022/01/02 02:27:24;;;;;;;67.25;44.80;;;;;;;;;;5052597;28;20040;-65
2022/01/02 02:29:50;;;;;;;48.00;31.00;;;;;;;;;;5050898;28;20040;-61
2022/01/02 02:32:17;;;;;;;39.88;25.27;;;;;;;;;;5051942;28;20045;-61
2022/01/02 02:34:44;;;;;;;44.97;27.98;;;;;;;;;;5052430;28;20032;-61
2022/01/02 02:37:10;;;;;;;45.80;27.20;;;;;;;;;;5052418;28;20478;-60
2022/01/02 02:39:39;;;;;;;40.58;24.80;;;;;;;;;;5052174;28;20021;-61
2022/01/02 02:42:13;;;;;;;38.67;23.67;;;;;;;;;;5052293;28;20021;-61
2022/01/02 02:44:40;;;;;;;35.38;21.30;;;;;;;;;;5052153;28;20501;-59
2022/01/02 02:49:50;;;;;;;23.58;15.18;;;;;;;;;;5052327;28;20040;-61
2022/01/02 02:52:36;;;;;;;22.95;15.05;;;;;;;;;;5052392;28;20486;-60
2022/01/02 02:55:03;;;;;;;23.65;16.48;;;;;;;;;;5052059;28;20033;-59
2022/01/02 02:57:31;;;;;;;27.27;16.15;;;;;;;;;;5051998;28;20021;-61
2022/01/02 02:59:57;;;;;;;26.45;17.63;;;281.70;2278.40;;;;;;5052180;28;20035;-61
2022/01/02 03:02:24;;;;;;;32.15;20.27;;;281.60;2278.40;;;;;;5052222;28;20029;-66
2022/01/02 03:04:50;;;;;;;32.00;20.60;;;281.60;2278.40;;;;;;5052304;28;20120;-66
2022/01/02 03:07:15;;;;;;;32.05;20.23;;;256.90;2252.80;;;;;;5052131;28;20092;-65
2022/01/02 03:09:48;;;;;;;31.65;20.95;;;;;;;;;;5051802;28;20025;-61
2022/01/02 03:12:14;;;;;;;45.25;26.33;;;;;;;;;;5051936;28;20055;-61
2022/01/02 03:14:40;;;;;;;39.10;21.58;;;;;;;;;;5052110;28;20478;-61
2022/01/02 03:17:06;;;;;;;33.67;20.77;;;;;;;;;;5054619;28;20060;-60
2022/01/02 03:19:34;;;;;;;31.52;19.77;;;;;;;;;;5055594;28;20025;-61
2022/01/02 03:22:00;;;;;;;38.80;22.77;;;;;;;;;;5055763;28;20032;-64
2022/01/02 03:24:26;;;;;;;42.65;24.52;;;;;;;;;;5055723;28;20032;-61
2022/01/02 03:26:52;;;;;;;33.10;21.83;;;;;;;;;;5053885;28;20074;-61
2022/01/02 03:29:19;;;;;;;31.25;20.50;;;;;;;;;;5055651;28;20474;-61
2022/01/02 03:31:45;;;;;;;26.00;16.98;;;;;;;;;;5055299;28;20053;-60
2022/01/02 03:34:11;;;;;;;23.95;15.77;;;;;;;;;;5055460;28;20033;-61
2022/01/02 03:36:37;;;;;;;25.70;14.55;;;;;;;;;;5055492;28;20074;-60
2022/01/02 03:39:04;;;;;;;24.45;14.63;;;;;;;;;;5055258;28;20386;-61
2022/01/02 03:41:30;;;;;;;21.33;14.15;;;;;;;;;;5055015;28;20056;-60
2022/01/02 03:43:56;;;;;;;26.10;15.88;;;;;;;;;;5055315;28;20110;-60
2022/01/02 03:46:22;;;;;;;26.33;16.55;;;256.30;2252.80;;;;;;5055178;28;20108;-61
2022/01/02 03:48:47;;;;;;;25.05;18.25;;;256.30;2252.80;;;;;;5054920;28;20052;-60
2022/01/02 03:51:13;;;;;;;25.27;17.17;;;256.10;2252.80;;;;;;5051829;28;20061;-61
2022/01/02 03:53:39;;;;;;;25.58;17.00;;;231.30;2252.80;;;;;;5034783;28;20045;-61
2022/01/02 03:56:05;;;;;;;27.60;17.27;;;256.00;2252.80;;;;;;5034503;28;20384;-60
2022/01/02 03:58:31;;;;;;;26.60;15.30;;;256.10;2252.80;;;;;;5034878;28;20105;-59
2022/01/02 04:00:57;;;;;;;23.35;15.60;;;;;;;;;;5034602;28;20722;-61
2022/01/02 04:03:23;;;;;;;25.92;15.15;;;256.30;2252.80;;;;;;5034268;28;20028;-63
2022/01/02 04:05:48;;;;;;;24.85;17.13;;;256.20;2252.80;;;;;;5039316;28;20029;-62
2022/01/02 04:08:14;;;;;;;23.88;16.10;;;256.10;2252.80;;;;;;5053900;28;20023;-61
2022/01/02 04:10:40;;;;;;;22.85;14.80;;;256.00;2252.80;;;;;;5050067;28;20021;-60
2022/01/02 04:13:06;;;;;;;26.05;15.63;;;;;;;;;;5050279;28;20022;-60
2022/01/02 04:15:33;;;;;;;22.40;13.90;;;;;;;;;;5034747;28;20065;-60
2022/01/02 04:17:59;;;;;;;21.48;13.25;;;;;;;;;;5034710;28;20017;-65
2022/01/02 04:20:25;;;;;;;19.00;12.65;;;;;;;;;;5054436;28;20025;-61
2022/01/02 04:22:51;;;;;;;17.08;12.23;;;;;;;;;;5044708;28;20039;-63
2022/01/02 04:25:17;;;;;;;19.98;12.38;;;;;;;;;;5044169;28;20033;-60
2022/01/02 04:27:43;;;;;;;16.65;11.95;;;;;;;;;;5032866;28;20080;-61
2022/01/02 04:30:11;;;;;;;19.98;12.23;;;;;;;;;;5038870;28;20032;-62
2022/01/02 04:32:37;;;;;;;19.58;12.23;;;;;;;;;;5054260;28;20036;-63
2022/01/02 04:35:04;;;;;;;18.80;12.13;;;;;;;;;;5054366;28;20036;-61
2022/01/02 04:37:30;;;;;;;19.42;12.68;;;;;;;;;;5040160;28;20493;-61
2022/01/02 04:39:56;;;;;;;19.25;12.40;;;;;;;;;;5039830;28;20025;-61
2022/01/02 04:42:22;;;;;;;18.83;12.20;;;;;;;;;;5054009;28;20021;-62
2022/01/02 04:44:48;;;;;;;19.63;12.40;;;230.90;2252.80;;;;;;5052586;28;20095;-60
2022/01/02 04:47:13;;;;;;;19.10;12.75;;;230.90;2252.80;;;;;;5034219;28;20029;-61
2022/01/02 04:49:39;;;;;;;22.88;13.77;;;231.00;2252.80;;;;;;5033902;28;20014;-59
2022/01/02 04:52:05;;;;;;;22.17;15.23;;;;;;;;;;5034223;28;20033;-61
2022/01/02 04:54:31;;;;;;;27.73;17.98;;;;;;;;;;5032888;28;20038;-61
2022/01/02 04:56:57;;;;;;;29.90;17.63;;;;;;;;;;5033761;28;20115;-61
2022/01/02 04:59:23;;;;;;;26.20;14.88;;;;;;;;;;5033860;28;20025;-61
2022/01/02 05:01:49;;;;;;;23.23;14.85;;;256.20;2252.80;;;;;;5033754;28;20043;-60
2022/01/02 05:04:15;;;;;;;21.48;13.45;;;256.20;2252.80;;;;;;5033576;28;20025;-60
2022/01/02 05:06:41;;;;;;;25.90;15.93;;;256.00;2252.80;;;;;;5033740;28;20101;-59
2022/01/02 05:09:06;;;;;;;32.05;17.27;;;231.30;2252.80;;;;;;5033785;28;20447;-60
2022/01/02 05:11:32;;;;;;;59.30;34.97;;;256.10;2252.80;;;;;;5052397;28;20437;-61
2022/01/02 05:13:58;;;;;;;48.28;29.00;;;256.20;2252.80;;;;;;5053218;28;20100;-60
2022/01/02 05:16:23;;;;;;;40.33;24.58;;;256.50;2252.80;;;;;;5053596;28;20029;-61
2022/01/02 05:18:49;;;;;;;28.98;19.85;;;256.60;2252.80;;;;;;5053382;28;20029;-60
2022/01/02 05:21:15;;;;;;;28.50;19.10;;;256.40;2252.80;;;;;;5053421;28;20021;-60
2022/01/02 05:23:42;;;;;;;27.45;18.08;;;256.50;2252.80;;;;;;5045957;28;20025;-61
2022/01/02 05:26:08;;;;;;;30.00;19.65;;;;;;;;;;5053375;28;20021;-60
2022/01/02 05:28:34;;;;;;;33.63;20.02;;;;;;;;;;5039944;28;20025;-60
2022/01/02 05:31:00;;;;;;;28.55;18.33;;;;;;;;;;5033087;28;20672;-61
2022/01/02 05:33:26;;;;;;;25.42;17.40;;;;;;;;;;5033418;28;20108;-61
2022/01/02 05:35:53;;;;;;;23.60;15.90;;;;;;;;;;5036508;28;20037;-61
2022/01/02 05:38:19;;;;;;;26.77;16.42;;;;;;;;;;5053329;28;20017;-60
2022/01/02 05:40:47;;;;;;;27.77;16.70;;;;;;;;;;5052716;28;20051;-61
2022/01/02 05:43:14;;;;;;;34.10;21.48;;;256.20;2252.80;;;;;;5053032;28;20017;-63
2022/01/02 05:45:40;;;;;;;27.95;17.27;;;256.10;2252.80;;;;;;5052995;28;20028;-61
2022/01/02 05:48:05;;;;;;;31.20;18.70;;;256.10;2252.80;;;;;;5052934;28;20036;-66
2022/01/02 05:50:31;;;;;;;33.38;21.73;;;231.30;2252.80;;;;;;5052855;28;20025;-61
2022/01/02 05:52:57;;;;;;;32.25;22.13;;;256.10;2252.80;;;;;;5052778;28;20028;-61
2022/01/02 05:55:23;;;;;;;26.50;17.42;;;256.30;2252.80;;;;;;5052807;28;20086;-62
2022/01/02 05:57:49;;;;;;;23.95;17.58;;;256.40;2252.80;;;;;;5052955;28;20391;-60
2022/01/02 06:00:14;;;;;;;28.45;16.48;;;256.40;2252.80;;;;;;5052500;28;20471;-61
2022/01/02 06:02:40;;;;;;;29.83;17.75;;;256.40;2252.80;;;;;;5052611;28;20036;-60
2022/01/02 06:05:06;;;;;;;34.85;21.85;;;256.50;2252.80;;;;;;5052616;28;20029;-60
2022/01/02 06:07:33;;;;;;;31.40;21.48;;;;;;;;;;5050823;28;20375;-61
2022/01/02 06:10:00;;;;;;;30.42;21.17;;;231.30;2252.80;;;;;;5043301;28;20034;-59
2022/01/02 06:12:26;;;;;;;32.38;20.85;;;;;;;;;;5032677;28;20108;-61
2022/01/02 06:14:52;;;;;;;35.88;22.20;;;;;;;;;;5032435;28;20033;-61
2022/01/02 06:17:18;;;;;;;38.58;25.48;;;;;;;;;;5032895;28;20018;-59
2022/01/02 06:19:44;;;;;;;42.25;26.85;;;;;;;;;;5032711;28;20022;-61
2022/01/02 06:22:10;;;;;;;41.35;26.13;;;;;;;;;;5032789;28;20028;-61
2022/01/02 06:24:37;;;;;;;47.85;27.10;;;;;;;;;;5032455;28;20471;-60
2022/01/02 06:27:03;;;;;;;46.35;28.02;;;;;;;;;;5032175;28;20080;-61
2022/01/02 06:29:29;;;;;;;44.97;27.95;;;;;;;;;;5032549;28;20365;-61
2022/01/02 06:31:57;;;;;;;39.42;24.77;;;;;;;;;;5032295;28;20491;-61
2022/01/02 06:34:23;;;;;;;51.90;31.08;;;;;;;;;;5032356;28;20038;-61
2022/01/02 06:36:49;;;;;;;42.13;26.92;;;;;;;;;;5032331;28;20036;-61
2022/01/02 06:39:15;;;;;;;43.13;26.33;;;205.70;2252.80;;;;;;5032567;28;20030;-62
2022/01/02 06:41:41;;;;;;;42.38;25.98;;;205.70;2252.80;;;;;;5051969;28;20056;-62
2022/01/02 06:44:07;;;;;;;44.15;27.35;;;205.70;2252.80;;;;;;5052454;28;20063;-61
2022/01/02 06:46:32;;;;;;;38.53;26.52;;;205.70;2252.80;;;;;;5051749;28;20483;-61
2022/01/02 06:48:58;;;;;;;35.85;23.92;;;230.40;2252.80;;;;;;5052212;28;20028;-61
2022/01/02 06:51:24;;;;;;;37.47;23.17;;;205.70;2252.80;;;;;;5052694;28;20078;-62
2022/01/02 06:53:50;;;;;;;36.92;23.08;;;;;;;;;;5056285;28;20028;-62
2022/01/02 06:56:16;;;;;;;41.88;26.05;;;;;;;;;;5056094;28;20067;-61
2022/01/02 06:58:42;;;;;;;47.08;27.10;;;205.70;2252.80;;;;;;5056036;28;20079;-62
2022/01/02 07:01:08;;;;;;;40.35;25.83;;;;;;;;;;5056163;28;20568;-67
2022/01/02 07:03:34;;;;;;;48.67;29.42;;;;;;;;;;5055985;28;20033;-62
2022/01/02 07:06:00;;;;;;;44.75;27.08;;;;;;;;;;5040472;28;20104;-61
2022/01/02 07:08:28;;;;;;;41.42;26.70;;;205.70;2252.80;;;;;;5036154;28;20018;-60
2022/01/02 07:10:55;;;;;;;41.63;28.13;;;205.70;2252.80;;;;;;5048880;28;20045;-62
2022/01/02 07:13:21;;;;;;;41.70;28.10;;;205.70;2252.80;;;;;;5055978;28;20102;-62
2022/01/02 07:15:47;;;;;;;50.58;32.00;;;230.40;2252.80;;;;;;5055725;28;20025;-60
2022/01/02 07:18:13;;;;;;;52.35;32.55;;;;;;;;;;5055968;28;20082;-63
2022/01/02 07:20:39;;;;;;;48.60;33.75;;;;;;;;;;5055653;28;20487;-65
2022/01/02 07:23:05;;;;;;;52.40;35.72;;;231.00;2252.80;;;;;;5055939;28;20414;-62
2022/01/02 07:25:31;;;;;;;52.60;33.00;;;;;;;;;;5055662;28;20029;-62
2022/01/02 07:27:57;;;;;;;57.90;36.30;;;;;;;;;;5055655;28;20360;-62
2022/01/02 07:30:23;;;;;;;48.60;34.38;;;256.40;2252.80;;;;;;5055285;28;20045;-61
2022/01/02 07:32:49;;;;;;;57.08;36.97;;;256.30;2252.80;;;;;;5055432;28;20131;-64
2022/01/02 07:35:14;;;;;;;62.58;41.28;;;256.40;2252.80;;;;;;5055633;28;20115;-63
2022/01/02 07:37:40;;;;;;;47.83;33.88;;;256.30;2252.80;;;;;;5048270;28;20097;-66
2022/01/02 07:40:07;;;;;;;54.75;36.92;;;256.40;2252.80;;;;;;5055118;28;20113;-61
2022/01/02 07:42:33;;;;;;;56.13;37.00;;;256.30;2252.80;;;;;;5045021;28;20585;-60
2022/01/02 07:44:59;;;;;;;63.30;41.70;;;256.50;2252.80;;;;;;5046768;28;20064;-60
2022/01/02 07:47:25;;;;;;;72.07;44.28;;;256.60;2252.80;;;;;;5036636;28;20110;-62
2022/01/02 07:49:51;;;;;;;70.25;46.30;;;256.70;2252.80;;;;;;5035464;28;20025;-61
2022/01/02 07:52:17;;;;;;;87.53;62.28;;;256.70;2252.80;;;;;;5035267;28;20490;-61
2022/01/02 07:54:43;;;;;;;71.93;47.95;;;;;;;;;;5035314;28;20509;-75
2022/01/02 07:57:09;;;;;;;79.22;51.00;;;;;;;;;;5035184;28;20029;-72
2022/01/02 07:59:35;;;;;;;71.38;50.17;;;;;;;;;;5041037;28;20474;-72
2022/01/02 08:02:01;;;;;;;58.70;39.85;;;;;;;;;;5055126;28;20033;-81
2022/01/02 08:04:27;;;;;;;62.33;41.15;;;282.30;2278.40;;;;;;5055354;28;20075;-63
2022/01/02 08:06:53;;;;;;;59.97;39.88;;;282.30;2278.40;;;;;;5054117;28;20483;-66
2022/01/02 08:09:18;;;;;;;58.15;39.97;;;282.40;2278.40;;;;;;5035081;28;20029;-65
2022/01/02 08:11:44;;;;;;;56.67;38.95;;;;;;;;;;5054159;28;20029;-75
2022/01/02 08:14:11;;;;;;;105.47;66.85;;;307.30;2304.00;;;;;;5054822;28;20029;-74
2022/01/02 08:16:37;;;;;;;82.30;52.58;;;307.20;2304.00;;;;;;5054607;28;20021;-69
2022/01/02 08:19:05;;;;;;;39.03;25.55;;;307.30;2304.00;;;;;;5046033;28;20063;-64
2022/01/02 08:21:31;;;;;;;43.75;28.20;;;;;;;;;;5034747;28;20082;-69
2022/01/02 08:23:58;;;;;;;73.78;45.28;;;;;;;;;;5034701;28;20476;-66
2022/01/02 08:26:24;;;;;;;64.22;36.55;;;;;;;;;;5034696;28;20021;-74
2022/01/02 08:28:51;;;;;;;60.45;34.15;;;333.10;2329.60;;;;;;5034553;28;20036;-76
2022/01/02 08:31:17;;;;;;;56.78;33.97;;;;;;;;;;5034359;28;20096;-65
2022/01/02 08:33:43;;;;;;;68.00;45.60;;;;;;;;;;5034339;28;20049;-63
2022/01/02 08:36:09;;;;;;;83.72;56.90;;;;;;;;;;5034155;28;20061;-67
2022/01/02 08:38:35;;;;;;;105.72;67.45;;;;;;;;;;5034381;28;20021;-67
2022/01/02 08:41:01;;;;;;;182.77;120.63;;;;;;;;;;5047401;28;20025;-76
2022/01/02 08:43:27;;;;;;;97.70;59.53;;;;;;;;;;5054181;28;20057;-75
2022/01/02 08:45:53;;;;;;;84.25;57.10;;;333.30;2329.60;;;;;;5054557;28;20074;-65
2022/01/02 08:48:19;;;;;;;83.88;58.85;;;333.20;2329.60;;;;;;5054126;28;20017;-68
2022/01/02 08:50:45;;;;;;;94.60;67.30;;;;;;;;;;5054080;28;20039;-64
2022/01/02 08:53:10;;;;;;;98.20;69.20;;;333.10;2329.60;;;;;;5054214;28;20035;-76
2022/01/02 08:55:39;;;;;;;99.78;71.38;;;;;;;;;;5054054;28;20116;-68
2022/01/02 08:58:05;;;;;;;97.78;71.18;;;333.30;2329.60;;;;;;5054034;28;20475;-69
2022/01/02 09:00:32;;;;;;;105.82;74.75;;;;;;;;;;5053849;28;20060;-63
2022/01/02 09:02:58;;;;;;;114.85;84.43;;;;;;;;;;5053555;28;20033;-64
2022/01/02 09:05:26;;;;;;;128.95;88.45;;;;;;;;;;5053907;28;20025;-76
2022/01/02 09:07:52;;;;;;;130.85;97.38;;;;;;;;;;5053595;28;20021;-65
2022/01/02 09:10:18;;;;;;;129.90;92.78;;;409.80;2201.60;;;;;;5052622;28;20471;-74
2022/01/02 09:12:44;;;;;;;124.75;94.68;;;409.80;2355.20;;;;;;5053695;28;20049;-77
2022/01/02 09:15:11;;;;;;;110.95;83.70;;;;;;;;;;5053176;28;20071;-64
2022/01/02 09:17:37;;;;;;;106.15;79.32;;;;;;;;;;5053630;28;20398;-65
2022/01/02 09:20:04;;;;;;;107.40;81.80;;;;;;;;;;5053549;28;20021;-68
2022/01/02 09:22:30;;;;;;;114.80;86.60;;;640.40;1075.20;;;;;;5053646;28;20025;-78
2022/01/02 09:24:56;;;;;;;104.75;79.82;;;640.30;1075.20;;;;;;5053427;28;20078;-69
2022/01/02 09:27:22;;;;;;;115.10;88.53;;;589.60;1305.60;;;;;;5053552;28;20382;-66
2022/01/02 09:29:48;;;;;;;77.63;61.38;;;;;;;;;;5053498;28;20488;-71
2022/01/02 09:32:14;;;;;;;79.35;60.50;;;666.30;1024.00;;;;;;5053341;28;20056;-77
2022/01/02 09:34:40;;;;;;;79.65;66.10;;;;;;;;;;5051981;28;20035;-76
2022/01/02 09:37:05;;;;;;;96.82;65.18;;;742.40;947.20;;;;;;5053452;28;20061;-76
2022/01/02 09:39:32;;;;;;;103.85;74.30;;;;;;;;;;5051980;28;20086;-75
2022/01/02 09:41:58;;;;;;;104.97;81.20;;;;;;;;;;5051471;28;20040;-76
2022/01/02 09:44:24;;;;;;;85.18;68.65;;;768.60;819.20;;;;;;5053029;28;20017;-71
2022/01/02 09:46:53;;;;;;;92.53;72.15;;;768.50;819.20;;;;;;5051599;28;20142;-76
2022/01/02 09:49:21;;;;;;;86.38;68.63;;;;;;;;;;5052936;28;20048;-81
2022/01/02 09:51:47;;;;;;;76.50;56.08;;;;;;;;;;5053086;28;20021;-79
2022/01/02 09:54:13;;;;;;;83.35;59.30;;;;;;;;;;5052633;28;20119;-80
2022/01/02 09:56:39;;;;;;;59.00;46.83;;;;;;;;;;5052805;28;20029;-80
2022/01/02 09:59:06;;;;;;;54.00;43.55;;;;;;;;;;5052451;28;20496;-79
2022/01/02 10:01:32;;;;;;;56.22;47.25;;;;;;;;;;5052426;28;20120;-81
2022/01/02 10:03:59;;;;;;;59.22;44.58;;;;;;;;;;5052252;28;20021;-83
2022/01/02 10:06:40;;;;;;;56.75;46.55;;;;;;;;;;5053935;28;20105;-83
2022/01/02 10:09:09;;;;;;;56.63;42.35;;;;;;;;;;5053794;28;20033;-83
2022/01/02 10:11:37;;;;;;;53.67;40.25;;;;;;;;;;5054354;28;20021;-83
2022/01/02 10:14:05;;;;;;;51.08;43.70;;;;;;;;;;5053952;28;20029;-77
2022/01/02 10:16:42;;;;;;;52.15;42.70;;;;;;;;;;5052580;28;20025;-78
2022/01/02 10:19:29;;;;;;;48.60;37.50;;;;;;;;;;5053009;28;20025;-78
2022/01/02 10:21:55;;;;;;;47.15;35.47;;;;;;;;;;5052740;28;20028;-73
2022/01/02 10:24:23;;;;;;;47.47;34.55;;;;;;;;;;5052840;28;20494;-76
2022/01/02 10:27:09;;;;;;;53.30;38.17;;;;;;;;;;5054642;28;20513;-77
2022/01/02 10:29:51;;;;;;;58.78;37.92;;;870.70;691.20;;;;;;5056326;28;20403;-74
2022/01/02 10:32:27;;;;;;;56.08;37.28;;;871.10;665.60;;;;;;5056355;28;20418;-77
2022/01/02 10:35:15;;;;;;;45.28;32.42;;;870.50;716.80;;;;;;5056232;28;20112;-75
2022/01/02 10:37:56;;;;;;;25.67;19.98;;;820.00;716.80;;;;;;5056177;28;20502;-77
2022/01/02 10:40:40;;;;;;;33.17;20.80;;;;;;;;;;5056300;28;20031;-80
2022/01/02 10:43:21;;;;;;;34.60;30.77;;;870.90;665.60;;;;;;5056299;28;20032;-75
2022/01/02 10:45:50;;;;;;;58.80;48.33;;;845.60;716.80;;;;;;5056190;28;20021;-70
2022/01/02 10:48:28;;;;;;;60.60;38.95;;;870.50;691.20;;;;;;5056402;28;20033;-77
2022/01/02 10:51:00;;;;;;;57.30;35.15;;;;;;;;;;5056090;28;20035;-77
2022/01/02 10:53:27;;;;;;;44.13;23.95;;;;;;;;;;5056225;28;20036;-77
2022/01/02 10:55:53;;;;;;;23.45;10.93;;;;;;;;;;5056131;28;20479;-73
2022/01/02 10:58:19;;;;;;;71.43;44.55;;;820.00;691.20;;;;;;5056154;28;20428;-77
2022/01/02 11:00:45;;;;;;;84.57;59.72;;;;;;;;;;5055851;28;20475;-77
2022/01/02 11:03:12;;;;;;;38.03;20.50;;;844.80;716.80;;;;;;5037986;28;20030;-71
2022/01/02 11:05:41;;;;;;;40.15;27.38;;;819.80;716.80;;;;;;5036350;28;20025;-75
2022/01/02 11:08:08;;;;;;;56.75;33.17;;;820.10;716.80;;;;;;5035848;28;20024;-76
2022/01/02 11:10:37;;;;;;;51.00;29.25;;;844.90;742.40;;;;;;5044663;28;20035;-76
2022/01/02 11:13:05;;;;;;;77.80;46.90;;;844.90;716.80;;;;;;5055989;28;20021;-77
2022/01/02 11:15:32;;;;;;;129.38;74.82;;;820.00;716.80;;;;;;5054142;28;20033;-70
2022/01/02 11:17:59;;;;;;;75.55;46.33;;;844.90;742.40;;;;;;5035597;28;20025;-71
2022/01/02 11:20:29;;;;;;;30.10;16.17;;;;;;;;;;5035520;28;20132;-73
2022/01/02 11:23:10;;;;;;;31.93;19.70;;;;;;;;;;5035452;28;20028;-72
2022/01/02 11:25:36;;;;;;;;;;;;;;;;;;5035912;28;20029;-75
2022/01/02 11:28:05;;;;;;;51.75;30.40;;;768.80;768.00;;;;;;5035204;28;19941;-78
2022/01/02 11:30:34;;;;;;;30.25;19.17;;;;;;;;;;5033980;28;20407;-76
2022/01/02 11:33:03;;;;;;;65.57;26.33;;;;;;;;;;5035523;28;20059;-72
2022/01/02 11:35:31;;;;;;;37.50;24.00;;;;;;;;;;5035481;28;20076;-74
2022/01/02 11:38:04;;;;;;;57.03;29.42;;;;;;;;;;5034609;28;20522;-76
2022/01/02 11:40:46;;;;;;;64.93;34.33;;;;;;;;;;5043355;28;20032;-75
2022/01/02 11:43:31;;;;;;;39.20;23.48;;;;;;;;;;5055200;28;20017;-71
2022/01/02 11:46:15;;;;;;;34.10;20.38;;;;;;;;;;5047742;28;20098;-79
2022/01/02 11:48:40;;;;;;;37.45;24.23;;;743.00;819.20;;;;;;5048495;28;20093;-68
2022/01/02 11:51:06;;;;;;;20.15;14.60;;;742.80;844.80;;;;;;5033745;28;20065;-74
2022/01/02 11:53:36;;;;;;;28.02;18.42;;;;;;;;;;5034873;28;20084;-75
2022/01/02 11:56:02;;;;;;;23.02;15.00;;;;;;;;;;5035182;28;20036;-74
2022/01/02 11:58:38;;;;;;;19.55;15.15;;;;;;;;;;5038927;28;20047;-76
2022/01/02 12:01:04;;;;;;;27.35;17.77;;;;;;;;;;5038965;28;20065;-76
2022/01/02 12:03:38;;;;;;;11.90;9.55;;;717.10;870.40;;;;;;5034951;28;20026;-75
2022/01/02 12:06:33;;;;;;;22.50;14.25;;;717.10;870.40;;;;;;5036973;28;20025;-74
2022/01/02 12:09:00;;;;;;;16.88;11.00;;;;;;;;;;5039200;28;20036;-74
2022/01/02 12:11:33;;;;;;;38.83;24.48;;;;;;;;;;5050379;28;20021;-72
2022/01/02 12:14:03;;;;;;;25.98;18.52;;;;;;;;;;5054795;28;20025;-74
2022/01/02 12:16:37;;;;;;;34.00;21.07;;;;;;;;;;5054542;28;20029;-76
2022/01/02 12:19:04;;;;;;;36.03;21.48;;;;;;;;;;5054499;28;20600;-66
2022/01/02 12:21:31;;;;;;;33.05;21.35;;;;;;;;;;5054404;28;20028;-74
2022/01/02 12:23:58;;;;;;;31.40;20.02;;;;;;;;;;5054404;28;20063;-75
2022/01/02 12:26:32;;;;;;;26.40;15.60;;;;;;;;;;5054235;28;20036;-74
2022/01/02 12:28:58;;;;;;;27.48;16.85;;;;;;;;;;5054094;28;20045;-72
2022/01/02 12:31:30;;;;;;;30.70;16.83;;;691.40;896.00;;;;;;5054022;28;20048;-68
2022/01/02 12:34:20;;;;;;;23.05;14.98;;;691.40;921.60;;;;;;5054304;28;20055;-73
2022/01/02 12:36:51;;;;;;;18.23;13.20;;;691.50;896.00;;;;;;5054182;28;20040;-74
2022/01/02 12:39:27;;;;;;;25.30;16.42;;;;;;;;;;5052577;28;20048;-74
2022/01/02 12:41:54;;;;;;;15.85;11.45;;;;;;;;;;5053933;28;20456;-73
2022/01/02 12:44:27;;;;;;;26.48;15.90;;;;;;;;;;5053975;28;20460;-67
2022/01/02 12:46:57;;;;;;;25.25;17.55;;;;;;;;;;5053988;28;20037;-73
2022/01/02 12:49:34;;;;;;;29.40;23.40;;;;;;;;;;5053156;28;20025;-73
2022/01/02 12:52:07;;;;;;;29.05;15.32;;;;;;;;;;5053879;28;20047;-74
2022/01/02 12:54:36;;;;;;;25.35;12.95;;;691.40;921.60;;;;;;5053550;28;20104;-69
2022/01/02 12:57:06;;;;;;;28.13;13.63;;;;;;;;;;5053500;28;20506;-69
2022/01/02 12:59:36;;;;;;;42.72;26.35;;;;;;;;;;5053767;28;20060;-74
2022/01/02 13:02:02;;;;;;;34.58;19.85;;;;;;;;;;5053657;28;20033;-74
2022/01/02 13:04:35;;;;;;;31.52;16.95;;;;;;;;;;5053352;28;20032;-74
2022/01/02 13:07:02;;;;;;;19.42;7.88;;;;;;;;;;5053436;28;20036;-74
2022/01/02 13:09:33;;;;;;;34.85;16.92;;;;;;;;;;5037389;28;20025;-68
2022/01/02 13:12:00;;;;;;;38.47;25.48;;;;;;;;;;5033439;28;20500;-75
2022/01/02 13:14:36;;;;;;;24.00;15.70;;;;;;;;;;5033431;28;20376;-74
2022/01/02 13:17:03;;;;;;;27.00;15.95;;;;;;;;;;5033277;28;20033;-72
2022/01/02 13:19:30;;;;;;;23.42;13.88;;;;;;;;;;5033439;28;20227;-74
2022/01/02 13:21:56;;;;;;;22.35;12.98;;;;;;;;;;5033490;28;20021;-71
2022/01/02 13:24:23;;;;;;;19.27;11.18;;;;;;;;;;5033237;28;20025;-74
2022/01/02 13:26:49;;;;;;;21.30;12.32;;;;;;;;;;5033233;28;20104;-74
2022/01/02 13:29:25;;;;;;;25.17;11.98;;;;;;;;;;5032742;28;20072;-73
2022/01/02 13:31:53;;;;;;;14.40;10.75;;;;;;;;;;5032416;28;20045;-74